Chinquapin, North Carolina
Current Conditions -  °F | °C
As of 5:35 AM on Tuesday 27 Jan 2015 (Local Time) from KOAJ Reporting Station
Overcast Overcast  
Wind Chill: 34°   Ceiling: 4800
Heat Index: 39°   Visibility: 10mi
Dew Point: 30°   Wind: 8mph
Humidity: 70%   Direction: 340°NNW
Pressure: 29.72"   Gusts: NA
Location:  34.83°N, 77.82°W
Report Text: KOAJ 271035Z AUTO 34007KT 10SM SCT022 BKN048 OVC060 04/M01 A2972 RMK AO1
Loading
Personal Weather Stations






























Interactive Weather Map New forecast layout! Learn more

10-Day Weather Forecast

Advertisements
Track Severe Weather on mobile